createdAt,value
2023-01-11T00:00:12.503Z,75.36
2023-01-11T00:02:40.556Z,76.52
2023-01-11T00:05:09.993Z,76.34
2023-01-11T00:07:39.164Z,77.27
2023-01-11T00:10:10.225Z,76.61
2023-01-11T00:12:43.439Z,77.87
2023-01-11T00:15:13.318Z,79.06
2023-01-11T00:17:44.165Z,78.92
2023-01-11T00:20:12.318Z,77.57
2023-01-11T00:22:41.755Z,78.55
2023-01-11T00:25:13.717Z,77.95
2023-01-11T00:27:43.860Z,78.67
2023-01-11T00:30:13.483Z,79.13
2023-01-11T00:32:42.992Z,77.65
2023-01-11T00:35:11.560Z,78.14
2023-01-11T00:37:39.917Z,78.14
2023-01-11T00:40:26.595Z,77.36
2023-01-11T00:43:12.105Z,77.79
2023-01-11T00:45:58.290Z,77.41
2023-01-11T00:48:26.678Z,77.94
2023-01-11T00:50:55.702Z,77.66
2023-01-11T00:53:23.786Z,78.46
2023-01-11T00:55:58.819Z,78.53
2023-01-11T00:58:29.276Z,77.83
2023-01-11T01:00:59.317Z,79.27
2023-01-11T01:03:29.295Z,79.02
2023-01-11T01:05:57.158Z,78.78
2023-01-11T01:08:25.053Z,78.56
2023-01-11T01:10:54.384Z,79.66
2023-01-11T01:13:39.879Z,79.14
2023-01-11T01:16:12.243Z,78.99
2023-01-11T01:18:40.139Z,79.48
2023-01-11T01:21:08.384Z,79.26
2023-01-11T01:23:36.903Z,79.62
2023-01-11T01:26:06.594Z,79.84
2023-01-11T01:28:34.922Z,80.68
2023-01-11T01:31:05.381Z,81.72
2023-01-11T01:33:33.682Z,81.09
2023-01-11T01:36:02.450Z,82.12
2023-01-11T01:38:33.381Z,81.63
2023-01-11T01:41:01.215Z,80.39
2023-01-11T01:43:52.096Z,79.93
2023-01-11T01:46:21.190Z,80.36
2023-01-11T01:48:55.403Z,79.25
2023-01-11T01:51:27.685Z,78.63
2023-01-11T01:54:02.241Z,79.04
2023-01-11T01:56:33.695Z,79.47
2023-01-11T01:59:04.516Z,79.82
2023-01-11T02:01:50.616Z,80.39
2023-01-11T02:04:25.045Z,79.73
2023-01-11T02:06:58.996Z,80.62
2023-01-11T02:09:34.835Z,80.10
2023-01-11T02:12:04.590Z,81.05
2023-01-11T02:14:37.482Z,81.77
2023-01-11T02:17:05.368Z,81.37
2023-01-11T02:19:45.695Z,81.72
2023-01-11T02:22:46.412Z,81.93
2023-01-11T02:25:35.067Z,82.37
2023-01-11T02:31:12.514Z,82.50
2023-01-11T02:33:46.193Z,83.26
2023-01-11T02:36:19.651Z,83.29
2023-01-11T02:38:52.546Z,83.04
2023-01-11T02:41:26.760Z,82.74
2023-01-11T02:44:18.315Z,83.25
2023-01-11T02:46:49.645Z,82.62
2023-01-11T02:49:27.780Z,83.56
2023-01-11T02:51:57.662Z,82.63
2023-01-11T02:54:28.273Z,83.57
2023-01-11T02:57:02.679Z,83.78
2023-01-11T02:59:36.216Z,82.15
2023-01-11T03:02:04.333Z,82.89
2023-01-11T03:04:34.128Z,83.04
2023-01-11T03:07:14.037Z,83.81
2023-01-11T03:09:54.645Z,82.25
2023-01-11T03:12:50.440Z,82.76
2023-01-11T03:15:57.383Z,83.46
2023-01-11T03:18:45.318Z,82.25
2023-01-11T03:21:22.799Z,83.35
2023-01-11T03:24:02.537Z,84.07
2023-01-11T03:26:39.335Z,82.77
2023-01-11T03:29:15.068Z,82.65
2023-01-11T03:31:52.151Z,83.44
2023-01-11T03:34:28.843Z,82.43
2023-01-11T03:36:59.794Z,83.12
2023-01-11T03:39:29.351Z,82.62
2023-01-11T03:42:03.473Z,83.16
2023-01-11T03:44:35.056Z,83.25
2023-01-11T03:47:10.449Z,85.09
2023-01-11T03:49:52.567Z,83.85
2023-01-11T03:52:25.883Z,84.03
2023-01-11T03:54:59.401Z,83.37
2023-01-11T03:57:33.442Z,82.29
2023-01-11T04:00:01.541Z,83.63
2023-01-11T04:02:38.551Z,84.82
2023-01-11T04:05:13.825Z,84.92
2023-01-11T04:07:43.935Z,82.21
2023-01-11T04:10:15.652Z,84.32
2023-01-11T04:12:46.739Z,84.25
2023-01-11T04:15:21.881Z,84.80
2023-01-11T04:17:51.215Z,85.04
2023-01-11T04:20:24.132Z,86.56
2023-01-11T04:22:51.913Z,85.27
2023-01-11T04:25:23.885Z,85.00
2023-01-11T04:27:51.718Z,83.27
2023-01-11T04:30:19.474Z,85.59
2023-01-11T04:32:51.627Z,85.03
2023-01-11T04:35:19.639Z,85.73
2023-01-11T04:37:51.252Z,85.13
2023-01-11T04:40:20.244Z,85.27
2023-01-11T04:42:47.095Z,85.80
2023-01-11T04:45:15.570Z,85.87
2023-01-11T04:47:48.190Z,83.61
2023-01-11T04:50:19.642Z,84.04
2023-01-11T04:52:51.738Z,84.52
2023-01-11T04:55:23.716Z,83.55
2023-01-11T04:57:53.503Z,84.00
2023-01-11T05:00:25.565Z,84.06
2023-01-11T05:02:53.843Z,83.97
2023-01-11T05:05:23.052Z,83.88
2023-01-11T05:07:53.322Z,84.73
2023-01-11T05:10:26.192Z,87.17
2023-01-11T05:12:57.230Z,85.91
2023-01-11T05:15:28.246Z,88.24
2023-01-11T05:17:56.112Z,88.04
2023-01-11T05:20:31.051Z,85.42
2023-01-11T05:23:01.715Z,85.01
2023-01-11T05:25:35.199Z,85.79
2023-01-11T05:28:03.262Z,89.20
2023-01-11T05:30:31.212Z,86.56
2023-01-11T05:32:59.411Z,86.71
2023-01-11T05:35:31.892Z,86.20
2023-01-11T05:38:01.774Z,87.48
2023-01-11T05:40:32.656Z,89.18
2023-01-11T05:43:03.281Z,88.97
2023-01-11T05:45:32.198Z,89.15
2023-01-11T05:48:00.524Z,87.89
2023-01-11T05:50:32.134Z,89.19
2023-01-11T05:53:06.007Z,89.56
2023-01-11T05:55:34.052Z,90.07
2023-01-11T05:58:04.468Z,90.41
2023-01-11T06:00:35.082Z,91.24
2023-01-11T06:03:03.268Z,91.11
2023-01-11T06:05:35.250Z,90.99
2023-01-11T06:08:03.081Z,87.75
2023-01-11T06:10:36.166Z,90.44
2023-01-11T06:13:20.437Z,89.61
2023-01-11T06:15:51.777Z,90.19
2023-01-11T06:18:19.611Z,89.85
2023-01-11T06:20:51.669Z,90.74
2023-01-11T06:23:24.010Z,89.26
2023-01-11T06:25:51.847Z,89.60
2023-01-11T06:28:19.812Z,88.89
2023-01-11T06:30:53.041Z,88.72
2023-01-11T06:33:21.133Z,88.19
2023-01-11T06:35:49.985Z,87.28
2023-01-11T06:38:23.233Z,88.25
2023-01-11T06:40:55.339Z,89.24
2023-01-11T06:43:23.585Z,89.22
2023-01-11T06:45:51.699Z,88.19
2023-01-11T06:48:20.272Z,89.40
2023-01-11T06:50:49.407Z,88.56
2023-01-11T06:53:18.295Z,88.43
2023-01-11T06:55:55.074Z,88.02
2023-01-11T06:58:23.539Z,88.46
2023-01-11T07:00:52.738Z,88.34
2023-01-11T07:03:24.172Z,87.42
2023-01-11T07:05:52.921Z,89.08
2023-01-11T07:08:22.591Z,89.05
2023-01-11T07:10:59.791Z,88.70
2023-01-11T07:13:30.609Z,87.31
2023-01-11T07:15:59.430Z,86.88
2023-01-11T07:18:33.509Z,88.29
2023-01-11T07:21:02.469Z,87.02
2023-01-11T07:23:30.285Z,87.05
2023-01-11T07:26:05.742Z,87.74
2023-01-11T07:28:35.131Z,89.21
2023-01-11T07:31:03.003Z,87.61
2023-01-11T07:33:30.944Z,87.47
2023-01-11T07:36:00.745Z,88.75
2023-01-11T07:38:32.493Z,85.80
2023-01-11T07:41:21.824Z,85.03
2023-01-11T07:43:52.089Z,85.36
2023-01-11T07:46:26.729Z,85.77
2023-01-11T07:48:55.215Z,87.27
2023-01-11T07:51:24.369Z,85.91
2023-01-11T07:53:56.188Z,84.48
2023-01-11T07:56:26.005Z,85.94
2023-01-11T07:58:54.128Z,84.11
2023-01-11T08:01:22.294Z,84.85
2023-01-11T08:03:53.236Z,84.66
2023-01-11T08:06:21.207Z,85.82
2023-01-11T08:08:49.303Z,83.00
2023-01-11T08:11:35.019Z,81.96
2023-01-11T08:14:23.981Z,83.14
2023-01-11T08:17:00.891Z,83.44
2023-01-11T08:19:29.163Z,83.39
2023-01-11T08:21:57.088Z,84.92
2023-01-11T08:24:26.064Z,83.92
2023-01-11T08:26:54.498Z,84.91
2023-01-11T08:29:23.826Z,84.79
2023-01-11T08:31:51.672Z,84.59
2023-01-11T08:34:22.479Z,85.41
2023-01-11T08:36:56.721Z,85.47
2023-01-11T08:39:25.300Z,84.91
2023-01-11T08:41:54.312Z,84.95
2023-01-11T08:44:34.075Z,86.17
2023-01-11T08:47:03.424Z,85.47
2023-01-11T08:49:31.705Z,85.65
2023-01-11T08:51:59.709Z,84.77
2023-01-11T08:54:27.603Z,84.02
2023-01-11T08:56:56.554Z,84.33
2023-01-11T08:59:34.299Z,84.73
2023-01-11T09:02:06.704Z,85.09
2023-01-11T09:04:35.202Z,84.93
2023-01-11T09:07:05.176Z,84.92
2023-01-11T09:09:35.744Z,84.82
2023-01-11T09:12:10.713Z,85.32
2023-01-11T09:14:40.106Z,84.79
2023-01-11T09:17:08.420Z,85.56
2023-01-11T09:19:38.665Z,85.86
2023-01-11T09:22:06.823Z,85.90
2023-01-11T09:24:44.176Z,85.74
2023-01-11T09:27:12.510Z,85.70
2023-01-11T09:29:41.778Z,84.56
2023-01-11T09:32:16.160Z,85.05
2023-01-11T09:34:46.788Z,84.79
2023-01-11T09:37:14.909Z,85.18
2023-01-11T09:39:46.731Z,85.27
2023-01-11T09:42:32.148Z,86.01
2023-01-11T09:45:13.131Z,84.14
2023-01-11T09:47:44.971Z,84.61
2023-01-11T09:50:20.071Z,84.83
2023-01-11T09:52:54.555Z,84.85
2023-01-11T09:55:28.704Z,83.62
2023-01-11T09:58:08.524Z,83.89
2023-01-11T10:00:49.702Z,81.16
2023-01-11T10:03:39.305Z,83.53
2023-01-11T10:06:18.596Z,83.08
2023-01-11T10:18:25.907Z,85.54
2023-01-11T10:18:32.540Z,84.19
2023-01-11T10:21:04.933Z,85.64
2023-01-11T10:23:41.745Z,85.36
2023-01-11T10:26:23.269Z,84.44
2023-01-11T10:29:06.105Z,83.43
2023-01-11T10:31:49.250Z,82.49
2023-01-11T10:34:42.038Z,82.91
2023-01-11T10:37:28.201Z,81.25
2023-01-11T10:40:18.455Z,83.43
2023-01-11T10:42:52.579Z,84.24
2023-01-11T10:45:23.714Z,83.11
2023-01-11T10:47:57.883Z,82.99
2023-01-11T10:50:32.006Z,84.29
2023-01-11T10:53:09.287Z,83.37
2023-01-11T10:55:46.835Z,84.24
2023-01-11T10:58:27.548Z,83.82
2023-01-11T11:01:10.842Z,84.71
2023-01-11T11:03:46.410Z,85.01
2023-01-11T11:06:22.175Z,86.12
2023-01-11T11:08:53.809Z,85.41
2023-01-11T11:11:27.843Z,86.81
2023-01-11T11:14:02.672Z,83.92
2023-01-11T11:16:55.575Z,84.71
2023-01-11T11:19:27.097Z,84.35
2023-01-11T11:21:57.361Z,84.09
2023-01-11T11:24:32.909Z,84.55
2023-01-11T11:27:08.693Z,84.57
2023-01-11T11:29:44.428Z,86.88
2023-01-11T11:32:20.539Z,87.24
2023-01-11T11:34:50.583Z,88.45
2023-01-11T11:37:26.923Z,88.40
2023-01-11T11:39:56.301Z,86.22
2023-01-11T11:42:24.851Z,87.24
2023-01-11T11:45:18.094Z,87.98
2023-01-11T11:48:02.204Z,86.63
2023-01-11T11:50:48.615Z,87.21
2023-01-11T11:53:28.732Z,87.54
2023-01-11T11:55:56.681Z,88.50
2023-01-11T11:58:26.497Z,88.93
2023-01-11T12:00:55.975Z,89.87
2023-01-11T12:03:30.198Z,89.93
2023-01-11T12:06:00.831Z,88.47
2023-01-11T12:08:31.817Z,88.37
2023-01-11T12:11:08.166Z,87.97
2023-01-11T12:13:39.675Z,88.97
2023-01-11T12:16:09.744Z,88.71
2023-01-11T12:18:43.910Z,88.33
2023-01-11T12:21:20.511Z,89.37
2023-01-11T12:23:50.630Z,88.98
2023-01-11T12:26:32.461Z,87.87
2023-01-11T12:29:19.792Z,86.02
2023-01-11T12:32:01.206Z,87.63
2023-01-11T12:34:46.148Z,89.74
2023-01-11T12:37:24.100Z,91.91
2023-01-11T12:39:57.548Z,91.63
2023-01-11T12:42:56.901Z,89.91
2023-01-11T12:45:37.586Z,91.46
2023-01-11T12:48:30.375Z,92.36
2023-01-11T12:51:11.703Z,91.22
2023-01-11T12:53:49.895Z,92.47
2023-01-11T12:56:45.759Z,91.41
2023-01-11T12:59:27.656Z,90.88
2023-01-11T13:02:03.666Z,89.77
2023-01-11T13:05:00.011Z,90.82
2023-01-11T13:07:49.199Z,90.30
2023-01-11T13:10:43.757Z,91.61
2023-01-11T13:13:16.757Z,91.52
2023-01-11T13:15:54.883Z,90.89
2023-01-11T13:18:29.727Z,92.27
2023-01-11T13:21:03.281Z,92.01
2023-01-11T13:23:39.203Z,92.27
2023-01-11T13:26:23.153Z,91.14
2023-01-11T13:28:59.117Z,90.78
2023-01-11T13:31:27.711Z,91.10
2023-01-11T13:34:02.739Z,88.28
2023-01-11T13:36:34.571Z,88.46
2023-01-11T13:39:09.045Z,89.18
2023-01-11T13:41:42.859Z,87.65
2023-01-11T13:44:16.816Z,86.54
2023-01-11T13:46:57.444Z,88.50
2023-01-11T13:49:46.974Z,88.60
2023-01-11T13:52:19.639Z,88.28
2023-01-11T13:54:56.675Z,88.94
2023-01-11T13:57:31.258Z,89.93
2023-01-11T14:00:10.618Z,89.29
2023-01-11T14:02:43.916Z,88.12
2023-01-11T14:05:19.070Z,89.64
2023-01-11T14:08:00.996Z,86.73
2023-01-11T14:10:40.802Z,87.08
2023-01-11T14:13:40.471Z,86.57
2023-01-11T14:16:15.412Z,85.34
2023-01-11T14:18:50.385Z,86.92
2023-01-11T14:21:22.598Z,86.78
2023-01-11T14:23:52.012Z,88.36
2023-01-11T14:26:45.102Z,87.05
2023-01-11T14:29:42.844Z,86.80
2023-01-11T14:32:24.059Z,85.88
2023-01-11T14:35:21.596Z,86.08
2023-01-11T14:38:29.034Z,87.08
2023-01-11T14:41:28.408Z,85.86
2023-01-11T14:44:09.954Z,87.19
2023-01-11T14:46:55.227Z,87.55
2023-01-11T14:49:39.544Z,86.46
2023-01-11T14:52:11.542Z,85.35
2023-01-11T14:54:42.681Z,85.83
2023-01-11T14:57:44.108Z,85.54
2023-01-11T15:00:59.815Z,85.52
2023-01-11T15:03:49.947Z,84.68
2023-01-11T15:06:22.848Z,83.79
2023-01-11T15:08:55.113Z,84.65
2023-01-11T15:11:29.382Z,84.73
2023-01-11T15:14:03.180Z,82.99
2023-01-11T15:16:52.864Z,84.35
2023-01-11T15:19:33.913Z,83.78
2023-01-11T15:22:07.237Z,84.61
2023-01-11T15:24:40.927Z,84.39
2023-01-11T15:27:23.050Z,84.31
2023-01-11T15:29:58.252Z,84.71
2023-01-11T15:32:28.990Z,83.44
2023-01-11T15:35:29.529Z,82.29
2023-01-11T15:38:03.794Z,81.13
2023-01-11T15:40:39.109Z,82.75
2023-01-11T15:43:24.044Z,85.93
2023-01-11T15:46:50.686Z,85.84
2023-01-11T15:49:50.593Z,86.33
2023-01-11T15:53:03.799Z,85.53
2023-01-11T15:56:19.014Z,84.78
2023-01-11T15:59:00.563Z,84.20
2023-01-11T16:01:42.218Z,83.65
2023-01-11T16:04:33.020Z,83.60
2023-01-11T16:07:13.596Z,84.09
2023-01-11T16:10:18.784Z,83.60
2023-01-11T16:13:02.019Z,84.69
2023-01-11T16:15:50.928Z,83.78
2023-01-11T16:18:22.397Z,83.99
2023-01-11T16:21:01.587Z,83.28
2023-01-11T16:23:31.715Z,82.87
2023-01-11T16:26:01.821Z,84.30
2023-01-11T16:28:33.253Z,84.62
2023-01-11T16:31:02.946Z,84.87
2023-01-11T16:33:34.460Z,84.28
2023-01-11T16:36:13.465Z,84.11
2023-01-11T16:38:55.630Z,83.85
2023-01-11T16:41:26.952Z,84.29
2023-01-11T16:44:07.612Z,85.54
2023-01-11T16:47:08.284Z,85.64
2023-01-11T16:49:40.965Z,85.00
2023-01-11T16:52:39.067Z,85.55
2023-01-11T16:55:24.496Z,83.63
2023-01-11T16:58:01.485Z,84.32
2023-01-11T17:00:36.088Z,83.69
2023-01-11T17:03:17.025Z,84.00
2023-01-11T17:06:06.447Z,84.48
2023-01-11T17:08:38.781Z,83.34
2023-01-11T17:11:30.287Z,84.75
2023-01-11T17:14:46.534Z,84.47
2023-01-11T17:17:19.707Z,83.89
2023-01-11T17:19:51.664Z,83.44
2023-01-11T17:22:23.724Z,83.54
2023-01-11T17:24:54.250Z,82.57
2023-01-11T17:27:29.352Z,83.47
2023-01-11T17:30:01.143Z,81.28
2023-01-11T17:32:42.392Z,81.69
2023-01-11T17:35:18.646Z,80.96
2023-01-11T17:37:48.201Z,80.73
2023-01-11T17:40:26.290Z,78.53
2023-01-11T17:43:14.416Z,80.94
2023-01-11T17:45:43.075Z,84.68
2023-01-11T17:48:15.850Z,89.11
2023-01-11T17:50:51.735Z,88.09
2023-01-11T17:53:24.304Z,88.64
2023-01-11T17:55:57.391Z,87.63
2023-01-11T17:58:27.347Z,87.23
2023-01-11T18:01:27.362Z,89.50
2023-01-11T18:03:58.049Z,87.88
2023-01-11T18:06:32.982Z,88.08
2023-01-11T18:09:02.978Z,89.67
2023-01-11T18:11:33.592Z,89.41
2023-01-11T18:14:03.156Z,88.48
2023-01-11T18:16:35.825Z,87.08
2023-01-11T18:19:23.817Z,87.54
2023-01-11T18:21:53.272Z,86.38
2023-01-11T18:24:56.213Z,86.53
2023-01-11T18:27:29.238Z,86.76
2023-01-11T18:30:08.142Z,87.54
2023-01-11T18:32:41.539Z,87.65
2023-01-11T18:35:20.201Z,87.14
2023-01-11T18:37:50.899Z,87.79
2023-01-11T18:40:22.044Z,85.76
2023-01-11T18:42:57.104Z,86.52
2023-01-11T18:45:24.993Z,86.06
2023-01-11T18:47:53.124Z,86.28
2023-01-11T18:50:24.173Z,86.49
2023-01-11T18:52:57.071Z,87.89
2023-01-11T18:55:30.455Z,86.52
2023-01-11T18:57:59.113Z,86.08
2023-01-11T19:00:27.273Z,86.05
2023-01-11T19:03:01.593Z,85.03
2023-01-11T19:05:34.914Z,86.23
2023-01-11T19:10:52.985Z,83.98
2023-01-11T19:13:24.185Z,83.50
2023-01-11T19:15:52.019Z,83.71
2023-01-11T19:18:22.707Z,82.75
2023-01-11T19:20:51.903Z,83.19
2023-01-11T19:26:04.395Z,83.22
2023-01-11T19:28:32.269Z,83.47
2023-01-11T19:31:00.218Z,82.78
2023-01-11T19:33:28.221Z,83.99
2023-01-11T19:36:01.576Z,83.62
2023-01-11T19:38:32.104Z,81.88
2023-01-11T19:41:05.297Z,81.10
2023-01-11T19:43:35.281Z,81.35
2023-01-11T19:46:04.037Z,82.35
2023-01-11T19:48:34.431Z,83.31
2023-01-11T19:51:23.164Z,83.75
2023-01-11T19:53:52.233Z,84.34
2023-01-11T19:56:20.745Z,84.36
2023-01-11T19:58:53.660Z,84.86
2023-01-11T20:01:21.530Z,84.54
2023-01-11T20:03:49.479Z,83.73
2023-01-11T20:06:18.679Z,81.92
2023-01-11T20:08:51.015Z,81.29
2023-01-11T20:11:20.909Z,81.44
2023-01-11T20:13:52.060Z,80.69
2023-01-11T20:16:22.777Z,81.24
2023-01-11T20:18:54.041Z,81.24
2023-01-11T20:21:24.492Z,81.70
2023-01-11T20:23:55.334Z,81.87
2023-01-11T20:26:26.002Z,82.48
2023-01-11T20:28:56.522Z,81.94
2023-01-11T20:31:28.177Z,82.01
2023-01-11T20:33:56.516Z,80.82
2023-01-11T20:36:26.499Z,81.20
2023-01-11T20:38:54.529Z,80.62
2023-01-11T20:41:42.207Z,78.87
2023-01-11T20:44:10.869Z,81.99
2023-01-11T20:46:42.650Z,80.08
2023-01-11T20:49:10.758Z,79.53
2023-01-11T20:51:42.640Z,79.72
2023-01-11T20:54:13.695Z,80.01
2023-01-11T20:56:46.588Z,81.23
2023-01-11T20:59:16.573Z,80.62
2023-01-11T21:01:47.581Z,80.40
2023-01-11T21:04:16.066Z,80.54
2023-01-11T21:06:48.063Z,80.60
2023-01-11T21:09:18.194Z,79.82
2023-01-11T21:11:52.577Z,79.76
2023-01-11T21:14:21.394Z,78.78
2023-01-11T21:16:49.376Z,77.93
2023-01-11T21:19:17.397Z,78.20
2023-01-11T21:21:48.983Z,78.04
2023-01-11T21:24:17.625Z,78.46
2023-01-11T21:26:45.917Z,78.32
2023-01-11T21:29:14.833Z,78.03
2023-01-11T21:31:45.641Z,76.57
2023-01-11T21:34:14.633Z,76.40
2023-01-11T21:36:44.471Z,76.61
2023-01-11T21:39:18.168Z,78.11
2023-01-11T21:41:58.342Z,77.45
2023-01-11T21:44:32.330Z,77.44
2023-01-11T21:47:00.986Z,77.37
2023-01-11T21:49:30.514Z,76.46
2023-01-11T21:51:59.784Z,76.31
2023-01-11T21:54:31.364Z,77.12
2023-01-11T21:57:09.868Z,78.32
2023-01-11T21:59:39.123Z,78.12
2023-01-11T22:02:07.096Z,77.02
2023-01-11T22:04:35.268Z,78.30
2023-01-11T22:07:03.151Z,77.96
2023-01-11T22:09:33.681Z,79.28
2023-01-11T22:12:06.030Z,77.69
2023-01-11T22:14:35.239Z,78.85
2023-01-11T22:17:04.544Z,80.37
2023-01-11T22:19:35.073Z,79.86
2023-01-11T22:22:08.461Z,80.30
2023-01-11T22:24:39.860Z,80.24
2023-01-11T22:27:24.746Z,80.38
2023-01-11T22:29:54.685Z,80.99
2023-01-11T22:32:22.713Z,81.08
2023-01-11T22:34:50.453Z,80.71
2023-01-11T22:37:18.247Z,80.37
2023-01-11T22:39:47.478Z,80.34
2023-01-11T22:42:17.625Z,80.39
2023-01-11T22:44:45.683Z,79.46
2023-01-11T22:47:19.532Z,79.28
2023-01-11T22:49:53.730Z,78.20
2023-01-11T22:52:22.360Z,77.64
2023-01-11T22:54:55.346Z,77.78
2023-01-11T22:57:23.517Z,76.14
2023-01-11T22:59:51.834Z,77.18
2023-01-11T23:02:24.023Z,78.25
2023-01-11T23:04:52.371Z,77.77
2023-01-11T23:07:20.526Z,79.85
2023-01-11T23:09:49.485Z,78.39
2023-01-11T23:12:37.791Z,79.37
2023-01-11T23:15:11.978Z,78.23
2023-01-11T23:17:39.881Z,79.36
2023-01-11T23:20:08.386Z,80.55
2023-01-11T23:22:41.674Z,80.08
2023-01-11T23:25:10.631Z,80.58
2023-01-11T23:27:39.952Z,80.56
2023-01-11T23:30:10.274Z,79.78
2023-01-11T23:32:38.212Z,80.49
2023-01-11T23:35:09.053Z,82.08
2023-01-11T23:37:37.191Z,81.74
2023-01-11T23:40:06.289Z,82.23
2023-01-11T23:42:34.053Z,81.20
2023-01-11T23:45:05.993Z,81.67
2023-01-11T23:47:35.495Z,81.86
2023-01-11T23:50:09.074Z,81.85
2023-01-11T23:52:37.238Z,80.61
2023-01-11T23:55:10.577Z,80.43
2023-01-11T23:57:58.288Z,79.14
